sensor_id;sensor_type;location;lat;lon;timestamp;temperature;humidity
3998;DHT22;61314;53.444;9.902;2022-07-29T00:01:03;13.00;99.90
3998;DHT22;61314;53.444;9.902;2022-07-29T00:03:30;13.00;99.90
3998;DHT22;61314;53.444;9.902;2022-07-29T00:05:57;12.90;99.90
3998;DHT22;61314;53.444;9.902;2022-07-29T00:08:24;12.90;99.90
3998;DHT22;61314;53.444;9.902;2022-07-29T00:10:50;12.80;99.90
3998;DHT22;61314;53.444;9.902;2022-07-29T00:13:17;12.80;99.90
3998;DHT22;61314;53.444;9.902;2022-07-29T00:15:58;12.80;99.90
3998;DHT22;61314;53.444;9.902;2022-07-29T00:18:31;12.70;99.90
3998;DHT22;61314;53.444;9.902;2022-07-29T00:20:58;12.70;99.90
3998;DHT22;61314;53.444;9.902;2022-07-29T00:23:25;12.70;99.90
3998;DHT22;61314;53.444;9.902;2022-07-29T00:25:51;12.60;99.90
3998;DHT22;61314;53.444;9.902;2022-07-29T00:28:18;12.60;99.90
3998;DHT22;61314;53.444;9.902;2022-07-29T00:30:45;12.60;99.90
3998;DHT22;61314;53.444;9.902;2022-07-29T00:33:12;12.60;99.90
3998;DHT22;61314;53.444;9.902;2022-07-29T00:35:39;12.60;99.90
3998;DHT22;61314;53.444;9.902;2022-07-29T00:38:16;12.50;99.90
3998;DHT22;61314;53.444;9.902;2022-07-29T00:40:44;12.50;99.90
3998;DHT22;61314;53.444;9.902;2022-07-29T00:43:12;12.40;99.90
3998;DHT22;61314;53.444;9.902;2022-07-29T00:45:41;12.40;99.90
3998;DHT22;61314;53.444;9.902;2022-07-29T00:48:07;12.40;99.90
3998;DHT22;61314;53.444;9.902;2022-07-29T00:50:35;12.40;99.90
3998;DHT22;61314;53.444;9.902;2022-07-29T00:53:03;12.40;99.90
3998;DHT22;61314;53.444;9.902;2022-07-29T00:55:31;12.40;99.90
3998;DHT22;61314;53.444;9.902;2022-07-29T00:57:58;12.40;99.90
3998;DHT22;61314;53.444;9.902;2022-07-29T01:00:27;12.40;99.90
3998;DHT22;61314;53.444;9.902;2022-07-29T01:02:54;12.50;99.90
3998;DHT22;61314;53.444;9.902;2022-07-29T01:05:23;12.40;99.90
3998;DHT22;61314;53.444;9.902;2022-07-29T01:08:12;12.40;99.90
3998;DHT22;61314;53.444;9.902;2022-07-29T01:10:40;12.40;99.90
3998;DHT22;61314;53.444;9.902;2022-07-29T01:13:08;12.30;99.90
3998;DHT22;61314;53.444;9.902;2022-07-29T01:15:44;12.30;99.90
3998;DHT22;61314;53.444;9.902;2022-07-29T01:18:20;12.30;99.90
3998;DHT22;61314;53.444;9.902;2022-07-29T01:21:21;12.30;99.90
3998;DHT22;61314;53.444;9.902;2022-07-29T01:24:11;12.30;99.90
3998;DHT22;61314;53.444;9.902;2022-07-29T06:32:46;15.30;99.90
3998;DHT22;61314;53.444;9.902;2022-07-29T06:35:15;15.60;99.90
3998;DHT22;61314;53.444;9.902;2022-07-29T06:38:02;15.70;99.90
3998;DHT22;61314;53.444;9.902;2022-07-29T06:40:42;15.90;99.90
3998;DHT22;61314;53.444;9.902;2022-07-29T06:43:28;16.00;99.90
3998;DHT22;61314;53.444;9.902;2022-07-29T06:46:02;16.20;99.90
3998;DHT22;61314;53.444;9.902;2022-07-29T06:48:30;16.30;99.90
3998;DHT22;61314;53.444;9.902;2022-07-29T06:50:57;16.40;99.90
3998;DHT22;61314;53.444;9.902;2022-07-29T06:53:26;16.40;99.90
3998;DHT22;61314;53.444;9.902;2022-07-29T06:55:53;16.40;99.90
3998;DHT22;61314;53.444;9.902;2022-07-29T06:58:20;16.60;99.90
3998;DHT22;61314;53.444;9.902;2022-07-29T07:00:48;16.50;99.90
3998;DHT22;61314;53.444;9.902;2022-07-29T07:03:16;16.60;99.90
3998;DHT22;61314;53.444;9.902;2022-07-29T07:05:43;16.60;99.90
3998;DHT22;61314;53.444;9.902;2022-07-29T07:08:11;16.60;99.90
3998;DHT22;61314;53.444;9.902;2022-07-29T07:10:38;16.70;99.90
3998;DHT22;61314;53.444;9.902;2022-07-29T07:13:08;16.60;99.90
3998;DHT22;61314;53.444;9.902;2022-07-29T07:15:36;16.70;99.90
3998;DHT22;61314;53.444;9.902;2022-07-29T07:18:05;16.70;99.90
3998;DHT22;61314;53.444;9.902;2022-07-29T07:20:33;16.70;99.90
3998;DHT22;61314;53.444;9.902;2022-07-29T07:23:01;16.70;99.90
3998;DHT22;61314;53.444;9.902;2022-07-29T07:25:27;16.80;99.90
3998;DHT22;61314;53.444;9.902;2022-07-29T07:27:54;16.80;99.90
3998;DHT22;61314;53.444;9.902;2022-07-29T07:30:21;17.00;99.90
3998;DHT22;61314;53.444;9.902;2022-07-29T07:32:48;17.10;99.90
3998;DHT22;61314;53.444;9.902;2022-07-29T07:35:15;17.10;99.90
3998;DHT22;61314;53.444;9.902;2022-07-29T07:37:42;17.30;99.90
3998;DHT22;61314;53.444;9.902;2022-07-29T07:42:44;17.60;99.90
3998;DHT22;61314;53.444;9.902;2022-07-29T07:45:13;17.80;99.90
3998;DHT22;61314;53.444;9.902;2022-07-29T07:52:52;17.90;99.90
3998;DHT22;61314;53.444;9.902;2022-07-29T08:00:16;18.40;99.90
3998;DHT22;61314;53.444;9.902;2022-07-29T08:02:43;19.00;99.90
3998;DHT22;61314;53.444;9.902;2022-07-29T08:05:12;19.20;99.90
3998;DHT22;61314;53.444;9.902;2022-07-29T09:53:01;23.50;99.90
3998;DHT22;61314;53.444;9.902;2022-07-29T09:55:28;23.00;99.90
3998;DHT22;61314;53.444;9.902;2022-07-29T10:00:43;23.00;99.90
3998;DHT22;61314;53.444;9.902;2022-07-29T10:03:11;22.90;99.90
3998;DHT22;61314;53.444;9.902;2022-07-29T10:05:39;22.90;99.90
3998;DHT22;61314;53.444;9.902;2022-07-29T10:08:07;23.00;99.90
3998;DHT22;61314;53.444;9.902;2022-07-29T10:10:38;23.00;99.90
3998;DHT22;61314;53.444;9.902;2022-07-29T10:15:44;22.90;99.90
3998;DHT22;61314;53.444;9.902;2022-07-29T10:18:13;23.00;99.90
3998;DHT22;61314;53.444;9.902;2022-07-29T10:20:41;22.90;99.90
3998;DHT22;61314;53.444;9.902;2022-07-29T10:23:09;23.10;99.90
3998;DHT22;61314;53.444;9.902;2022-07-29T10:25:36;23.20;99.90
3998;DHT22;61314;53.444;9.902;2022-07-29T10:28:05;23.10;99.90
3998;DHT22;61314;53.444;9.902;2022-07-29T10:30:33;23.20;99.90
3998;DHT22;61314;53.444;9.902;2022-07-29T10:38:34;23.60;99.90
3998;DHT22;61314;53.444;9.902;2022-07-29T10:44:09;23.80;99.90
3998;DHT22;61314;53.444;9.902;2022-07-29T10:46:45;24.00;99.90
3998;DHT22;61314;53.444;9.902;2022-07-29T12:35:56;28.80;82.40
3998;DHT22;61314;53.444;9.902;2022-07-29T12:46:12;29.50;76.80
3998;DHT22;61314;53.444;9.902;2022-07-29T12:48:41;29.40;77.90
3998;DHT22;61314;53.444;9.902;2022-07-29T12:51:10;29.50;70.20
3998;DHT22;61314;53.444;9.902;2022-07-29T12:53:38;29.50;71.90
3998;DHT22;61314;53.444;9.902;2022-07-29T12:56:06;29.70;69.80
3998;DHT22;61314;53.444;9.902;2022-07-29T12:59:12;29.80;71.00
3998;DHT22;61314;53.444;9.902;2022-07-29T13:01:40;29.80;71.40
3998;DHT22;61314;53.444;9.902;2022-07-29T13:04:07;29.70;69.70
3998;DHT22;61314;53.444;9.902;2022-07-29T13:06:45;29.80;68.90
3998;DHT22;61314;53.444;9.902;2022-07-29T13:09:18;29.60;64.90
3998;DHT22;61314;53.444;9.902;2022-07-29T13:11:50;29.40;66.20
3998;DHT22;61314;53.444;9.902;2022-07-29T13:14:41;29.70;67.60
3998;DHT22;61314;53.444;9.902;2022-07-29T13:22:10;29.60;63.20
3998;DHT22;61314;53.444;9.902;2022-07-29T13:27:18;29.50;65.50
3998;DHT22;61314;53.444;9.902;2022-07-29T13:29:45;29.40;63.30
3998;DHT22;61314;53.444;9.902;2022-07-29T13:32:13;29.30;65.00
3998;DHT22;61314;53.444;9.902;2022-07-29T13:34:40;29.20;63.10
3998;DHT22;61314;53.444;9.902;2022-07-29T13:37:07;29.30;70.10
3998;DHT22;61314;53.444;9.902;2022-07-29T13:39:34;29.20;65.80
3998;DHT22;61314;53.444;9.902;2022-07-29T13:42:01;29.10;66.90
3998;DHT22;61314;53.444;9.902;2022-07-29T13:44:28;29.30;66.90
3998;DHT22;61314;53.444;9.902;2022-07-29T13:46:54;29.40;64.70
3998;DHT22;61314;53.444;9.902;2022-07-29T13:49:22;29.60;64.30
3998;DHT22;61314;53.444;9.902;2022-07-29T13:51:49;29.80;66.60
3998;DHT22;61314;53.444;9.902;2022-07-29T13:54:16;29.90;65.90
3998;DHT22;61314;53.444;9.902;2022-07-29T13:56:43;30.00;65.20
3998;DHT22;61314;53.444;9.902;2022-07-29T13:59:12;30.10;64.10
3998;DHT22;61314;53.444;9.902;2022-07-29T14:04:11;29.70;61.50
3998;DHT22;61314;53.444;9.902;2022-07-29T14:06:38;30.00;60.40
3998;DHT22;61314;53.444;9.902;2022-07-29T14:09:06;29.80;62.30
3998;DHT22;61314;53.444;9.902;2022-07-29T14:11:35;29.90;60.00
3998;DHT22;61314;53.444;9.902;2022-07-29T14:14:02;29.90;62.30
3998;DHT22;61314;53.444;9.902;2022-07-29T14:16:29;29.80;59.20
3998;DHT22;61314;53.444;9.902;2022-07-29T14:18:56;29.90;60.00
3998;DHT22;61314;53.444;9.902;2022-07-29T14:21:23;29.90;58.10
3998;DHT22;61314;53.444;9.902;2022-07-29T14:23:51;29.90;58.10
3998;DHT22;61314;53.444;9.902;2022-07-29T14:26:19;29.80;60.20
3998;DHT22;61314;53.444;9.902;2022-07-29T14:28:49;29.70;61.40
3998;DHT22;61314;53.444;9.902;2022-07-29T14:31:16;29.70;61.80
3998;DHT22;61314;53.444;9.902;2022-07-29T14:33:43;29.50;61.00
3998;DHT22;61314;53.444;9.902;2022-07-29T14:36:15;29.70;62.20
3998;DHT22;61314;53.444;9.902;2022-07-29T14:41:09;29.60;59.30
3998;DHT22;61314;53.444;9.902;2022-07-29T14:43:36;29.50;61.10
3998;DHT22;61314;53.444;9.902;2022-07-29T14:46:02;29.30;65.20
3998;DHT22;61314;53.444;9.902;2022-07-29T14:48:34;29.30;68.30
3998;DHT22;61314;53.444;9.902;2022-07-29T14:51:01;29.10;70.30
3998;DHT22;61314;53.444;9.902;2022-07-29T14:53:30;29.10;71.00
3998;DHT22;61314;53.444;9.902;2022-07-29T14:55:57;28.70;71.50
3998;DHT22;61314;53.444;9.902;2022-07-29T14:58:44;28.50;74.00
3998;DHT22;61314;53.444;9.902;2022-07-29T15:01:17;28.30;74.50
3998;DHT22;61314;53.444;9.902;2022-07-29T15:03:44;28.00;75.60
3998;DHT22;61314;53.444;9.902;2022-07-29T15:06:11;27.80;76.40
3998;DHT22;61314;53.444;9.902;2022-07-29T15:08:38;27.80;76.40
3998;DHT22;61314;53.444;9.902;2022-07-29T15:11:04;27.70;76.90
3998;DHT22;61314;53.444;9.902;2022-07-29T15:13:32;27.60;76.80
3998;DHT22;61314;53.444;9.902;2022-07-29T15:15:59;27.70;78.00
3998;DHT22;61314;53.444;9.902;2022-07-29T15:57:55;26.20;83.90
3998;DHT22;61314;53.444;9.902;2022-07-29T16:00:26;26.10;83.70
3998;DHT22;61314;53.444;9.902;2022-07-29T16:05:20;25.90;84.20
3998;DHT22;61314;53.444;9.902;2022-07-29T16:07:47;26.00;84.90
3998;DHT22;61314;53.444;9.902;2022-07-29T16:10:14;26.00;84.70
3998;DHT22;61314;53.444;9.902;2022-07-29T16:12:41;25.90;84.50
3998;DHT22;61314;53.444;9.902;2022-07-29T16:15:08;25.80;84.50
3998;DHT22;61314;53.444;9.902;2022-07-29T16:20:05;25.70;85.30
3998;DHT22;61314;53.444;9.902;2022-07-29T17:07:19;24.80;91.00
3998;DHT22;61314;53.444;9.902;2022-07-29T17:09:46;24.40;93.10
3998;DHT22;61314;53.444;9.902;2022-07-29T17:12:19;24.40;93.40
3998;DHT22;61314;53.444;9.902;2022-07-29T17:14:46;24.40;93.50
3998;DHT22;61314;53.444;9.902;2022-07-29T17:17:13;24.20;94.20
3998;DHT22;61314;53.444;9.902;2022-07-29T17:27:12;24.10;94.60
3998;DHT22;61314;53.444;9.902;2022-07-29T17:29:40;23.90;95.60
3998;DHT22;61314;53.444;9.902;2022-07-29T17:32:07;23.80;95.70
3998;DHT22;61314;53.444;9.902;2022-07-29T17:39:31;23.80;96.20
3998;DHT22;61314;53.444;9.902;2022-07-29T17:41:58;23.60;97.10
3998;DHT22;61314;53.444;9.902;2022-07-29T17:44:26;23.50;97.50
3998;DHT22;61314;53.444;9.902;2022-07-29T18:24:09;22.40;99.90
3998;DHT22;61314;53.444;9.902;2022-07-29T18:26:37;22.40;99.90
3998;DHT22;61314;53.444;9.902;2022-07-29T18:31:35;22.20;99.90
3998;DHT22;61314;53.444;9.902;2022-07-29T18:34:02;22.10;99.90
3998;DHT22;61314;53.444;9.902;2022-07-29T19:20:43;21.00;99.90
3998;DHT22;61314;53.444;9.902;2022-07-29T19:23:10;20.80;99.90
3998;DHT22;61314;53.444;9.902;2022-07-29T19:25:37;20.80;99.90
3998;DHT22;61314;53.444;9.902;2022-07-29T19:28:19;20.70;99.90
3998;DHT22;61314;53.444;9.902;2022-07-29T19:30:46;20.60;99.90
3998;DHT22;61314;53.444;9.902;2022-07-29T19:33:13;20.50;99.90
3998;DHT22;61314;53.444;9.902;2022-07-29T19:35:46;20.50;99.90
3998;DHT22;61314;53.444;9.902;2022-07-29T19:38:18;20.40;99.90
3998;DHT22;61314;53.444;9.902;2022-07-29T19:43:13;20.30;99.90
3998;DHT22;61314;53.444;9.902;2022-07-29T19:46:00;20.20;99.90
3998;DHT22;61314;53.444;9.902;2022-07-29T20:23:00;20.00;99.90
3998;DHT22;61314;53.444;9.902;2022-07-29T20:25:28;19.50;99.90
3998;DHT22;61314;53.444;9.902;2022-07-29T20:30:22;19.40;99.90
